sensor_id;sensor_type;location;lat;lon;timestamp;P1;durP1;ratioP1;P2;durP2;ratioP2
5493;SDS011;2769;49.864;8.656;2023-07-08T00:02:15;9.83;;;6.83;;
5493;SDS011;2769;49.864;8.656;2023-07-08T00:04:43;9.60;;;7.83;;
5493;SDS011;2769;49.864;8.656;2023-07-08T00:07:11;9.70;;;7.33;;
5493;SDS011;2769;49.864;8.656;2023-07-08T00:09:40;10.17;;;7.00;;
5493;SDS011;2769;49.864;8.656;2023-07-08T00:12:08;8.23;;;7.00;;
5493;SDS011;2769;49.864;8.656;2023-07-08T00:14:39;11.00;;;7.50;;
5493;SDS011;2769;49.864;8.656;2023-07-08T00:17:11;8.63;;;7.10;;
5493;SDS011;2769;49.864;8.656;2023-07-08T00:19:40;8.47;;;6.47;;
5493;SDS011;2769;49.864;8.656;2023-07-08T00:22:09;12.10;;;7.70;;
5493;SDS011;2769;49.864;8.656;2023-07-08T00:24:41;9.20;;;6.73;;
5493;SDS011;2769;49.864;8.656;2023-07-08T00:27:10;8.40;;;7.00;;
5493;SDS011;2769;49.864;8.656;2023-07-08T00:29:40;7.07;;;6.30;;
5493;SDS011;2769;49.864;8.656;2023-07-08T00:32:12;8.97;;;6.90;;
5493;SDS011;2769;49.864;8.656;2023-07-08T00:34:41;9.20;;;6.87;;
5493;SDS011;2769;49.864;8.656;2023-07-08T00:37:10;8.70;;;6.67;;
5493;SDS011;2769;49.864;8.656;2023-07-08T00:39:39;11.40;;;7.50;;
5493;SDS011;2769;49.864;8.656;2023-07-08T00:42:10;9.23;;;7.17;;
5493;SDS011;2769;49.864;8.656;2023-07-08T00:44:43;9.40;;;6.60;;
5493;SDS011;2769;49.864;8.656;2023-07-08T00:47:12;9.47;;;7.00;;
5493;SDS011;2769;49.864;8.656;2023-07-08T00:49:43;11.53;;;7.97;;
5493;SDS011;2769;49.864;8.656;2023-07-08T00:52:15;12.10;;;7.90;;
5493;SDS011;2769;49.864;8.656;2023-07-08T00:54:44;10.23;;;7.27;;
5493;SDS011;2769;49.864;8.656;2023-07-08T00:57:12;9.77;;;7.90;;
5493;SDS011;2769;49.864;8.656;2023-07-08T00:59:42;10.10;;;7.47;;
5493;SDS011;2769;49.864;8.656;2023-07-08T01:02:13;11.20;;;8.80;;
5493;SDS011;2769;49.864;8.656;2023-07-08T01:04:43;11.43;;;7.67;;
5493;SDS011;2769;49.864;8.656;2023-07-08T01:07:16;9.77;;;7.23;;
5493;SDS011;2769;49.864;8.656;2023-07-08T01:09:50;10.60;;;7.73;;
5493;SDS011;2769;49.864;8.656;2023-07-08T01:12:20;11.17;;;7.20;;
5493;SDS011;2769;49.864;8.656;2023-07-08T01:14:52;10.83;;;8.07;;
5493;SDS011;2769;49.864;8.656;2023-07-08T01:17:21;11.67;;;8.30;;
5493;SDS011;2769;49.864;8.656;2023-07-08T01:19:50;10.30;;;7.77;;
5493;SDS011;2769;49.864;8.656;2023-07-08T01:22:23;11.60;;;8.33;;
5493;SDS011;2769;49.864;8.656;2023-07-08T01:24:52;10.67;;;7.43;;
5493;SDS011;2769;49.864;8.656;2023-07-08T01:27:19;11.70;;;8.50;;
5493;SDS011;2769;49.864;8.656;2023-07-08T01:29:47;16.20;;;9.37;;
5493;SDS011;2769;49.864;8.656;2023-07-08T01:32:15;12.83;;;9.10;;
5493;SDS011;2769;49.864;8.656;2023-07-08T01:34:46;18.23;;;9.33;;
5493;SDS011;2769;49.864;8.656;2023-07-08T01:37:31;11.93;;;8.20;;
5493;SDS011;2769;49.864;8.656;2023-07-08T01:40:23;15.60;;;8.60;;
5493;SDS011;2769;49.864;8.656;2023-07-08T01:42:53;11.57;;;8.43;;
5493;SDS011;2769;49.864;8.656;2023-07-08T01:45:21;10.63;;;7.53;;
5493;SDS011;2769;49.864;8.656;2023-07-08T01:47:51;11.63;;;8.73;;
5493;SDS011;2769;49.864;8.656;2023-07-08T01:50:23;13.10;;;9.10;;
5493;SDS011;2769;49.864;8.656;2023-07-08T01:52:56;12.60;;;9.03;;
5493;SDS011;2769;49.864;8.656;2023-07-08T01:55:26;11.80;;;8.40;;
5493;SDS011;2769;49.864;8.656;2023-07-08T01:57:55;11.53;;;8.80;;
5493;SDS011;2769;49.864;8.656;2023-07-08T02:00:24;11.13;;;8.33;;
5493;SDS011;2769;49.864;8.656;2023-07-08T02:02:52;16.33;;;8.87;;
5493;SDS011;2769;49.864;8.656;2023-07-08T02:05:20;12.40;;;9.70;;
5493;SDS011;2769;49.864;8.656;2023-07-08T02:07:48;12.90;;;8.30;;
5493;SDS011;2769;49.864;8.656;2023-07-08T02:10:18;13.00;;;8.80;;
5493;SDS011;2769;49.864;8.656;2023-07-08T02:12:46;11.63;;;8.53;;
5493;SDS011;2769;49.864;8.656;2023-07-08T02:15:13;12.53;;;8.03;;
5493;SDS011;2769;49.864;8.656;2023-07-08T02:17:41;11.73;;;8.33;;
5493;SDS011;2769;49.864;8.656;2023-07-08T02:20:12;12.87;;;8.43;;
5493;SDS011;2769;49.864;8.656;2023-07-08T02:22:40;12.37;;;8.37;;
5493;SDS011;2769;49.864;8.656;2023-07-08T02:25:08;11.23;;;8.40;;
5493;SDS011;2769;49.864;8.656;2023-07-08T02:27:38;12.80;;;8.40;;
5493;SDS011;2769;49.864;8.656;2023-07-08T02:30:06;12.40;;;8.30;;
5493;SDS011;2769;49.864;8.656;2023-07-08T02:32:35;14.33;;;8.70;;
5493;SDS011;2769;49.864;8.656;2023-07-08T02:35:05;10.50;;;8.40;;
5493;SDS011;2769;49.864;8.656;2023-07-08T02:37:34;10.67;;;8.27;;
5493;SDS011;2769;49.864;8.656;2023-07-08T02:40:02;8.73;;;7.53;;
5493;SDS011;2769;49.864;8.656;2023-07-08T02:42:30;13.27;;;8.27;;
5493;SDS011;2769;49.864;8.656;2023-07-08T02:44:59;11.13;;;7.80;;
5493;SDS011;2769;49.864;8.656;2023-07-08T02:47:28;11.17;;;8.30;;
5493;SDS011;2769;49.864;8.656;2023-07-08T02:49:56;12.83;;;8.63;;
5493;SDS011;2769;49.864;8.656;2023-07-08T02:52:24;10.90;;;8.30;;
5493;SDS011;2769;49.864;8.656;2023-07-08T02:54:52;10.90;;;8.73;;
5493;SDS011;2769;49.864;8.656;2023-07-08T02:57:20;10.40;;;7.97;;
5493;SDS011;2769;49.864;8.656;2023-07-08T02:59:48;12.70;;;8.57;;
5493;SDS011;2769;49.864;8.656;2023-07-08T03:02:17;13.10;;;8.40;;
5493;SDS011;2769;49.864;8.656;2023-07-08T03:04:45;14.20;;;8.67;;
5493;SDS011;2769;49.864;8.656;2023-07-08T03:07:16;12.20;;;8.77;;
5493;SDS011;2769;49.864;8.656;2023-07-08T03:09:44;13.73;;;9.30;;
5493;SDS011;2769;49.864;8.656;2023-07-08T03:12:12;12.50;;;8.80;;
5493;SDS011;2769;49.864;8.656;2023-07-08T03:14:40;9.70;;;7.93;;
5493;SDS011;2769;49.864;8.656;2023-07-08T03:17:08;12.33;;;8.77;;
5493;SDS011;2769;49.864;8.656;2023-07-08T03:19:37;15.37;;;9.80;;
5493;SDS011;2769;49.864;8.656;2023-07-08T03:22:05;26.60;;;15.67;;
5493;SDS011;2769;49.864;8.656;2023-07-08T03:24:34;26.77;;;15.43;;
5493;SDS011;2769;49.864;8.656;2023-07-08T03:27:03;26.17;;;16.50;;
5493;SDS011;2769;49.864;8.656;2023-07-08T03:29:35;28.13;;;16.80;;
5493;SDS011;2769;49.864;8.656;2023-07-08T03:32:05;17.07;;;11.90;;
5493;SDS011;2769;49.864;8.656;2023-07-08T03:34:33;17.60;;;10.93;;
5493;SDS011;2769;49.864;8.656;2023-07-08T03:37:03;19.20;;;10.83;;
5493;SDS011;2769;49.864;8.656;2023-07-08T03:39:32;15.07;;;9.17;;
5493;SDS011;2769;49.864;8.656;2023-07-08T03:42:00;14.73;;;9.50;;
5493;SDS011;2769;49.864;8.656;2023-07-08T03:44:28;13.30;;;8.87;;
5493;SDS011;2769;49.864;8.656;2023-07-08T03:46:56;14.50;;;9.53;;
5493;SDS011;2769;49.864;8.656;2023-07-08T03:49:27;12.70;;;8.93;;
5493;SDS011;2769;49.864;8.656;2023-07-08T03:51:55;12.30;;;9.17;;
5493;SDS011;2769;49.864;8.656;2023-07-08T03:54:25;14.27;;;8.30;;
5493;SDS011;2769;49.864;8.656;2023-07-08T03:56:56;14.00;;;8.77;;
5493;SDS011;2769;49.864;8.656;2023-07-08T03:59:25;11.60;;;8.80;;
5493;SDS011;2769;49.864;8.656;2023-07-08T04:01:55;14.97;;;9.00;;
5493;SDS011;2769;49.864;8.656;2023-07-08T04:04:25;12.70;;;8.87;;
5493;SDS011;2769;49.864;8.656;2023-07-08T04:06:53;11.73;;;7.90;;
5493;SDS011;2769;49.864;8.656;2023-07-08T04:09:22;13.20;;;9.13;;
5493;SDS011;2769;49.864;8.656;2023-07-08T04:11:51;12.17;;;8.00;;
5493;SDS011;2769;49.864;8.656;2023-07-08T04:14:20;8.43;;;7.17;;
5493;SDS011;2769;49.864;8.656;2023-07-08T04:16:49;13.73;;;8.00;;
5493;SDS011;2769;49.864;8.656;2023-07-08T04:19:19;10.37;;;8.20;;
5493;SDS011;2769;49.864;8.656;2023-07-08T04:21:49;12.27;;;8.27;;
5493;SDS011;2769;49.864;8.656;2023-07-08T04:24:17;10.60;;;7.43;;
5493;SDS011;2769;49.864;8.656;2023-07-08T04:26:45;13.93;;;8.30;;
5493;SDS011;2769;49.864;8.656;2023-07-08T04:29:16;10.20;;;7.80;;
5493;SDS011;2769;49.864;8.656;2023-07-08T04:31:45;11.53;;;7.87;;
5493;SDS011;2769;49.864;8.656;2023-07-08T04:34:13;9.87;;;7.50;;
5493;SDS011;2769;49.864;8.656;2023-07-08T04:36:42;10.97;;;8.50;;
5493;SDS011;2769;49.864;8.656;2023-07-08T04:39:10;9.23;;;7.40;;
5493;SDS011;2769;49.864;8.656;2023-07-08T04:41:39;10.17;;;7.27;;
5493;SDS011;2769;49.864;8.656;2023-07-08T04:44:11;11.30;;;7.97;;
5493;SDS011;2769;49.864;8.656;2023-07-08T04:46:42;10.93;;;7.03;;
5493;SDS011;2769;49.864;8.656;2023-07-08T04:49:13;11.00;;;7.77;;
5493;SDS011;2769;49.864;8.656;2023-07-08T04:51:41;11.30;;;7.30;;
5493;SDS011;2769;49.864;8.656;2023-07-08T04:54:09;12.00;;;7.73;;
5493;SDS011;2769;49.864;8.656;2023-07-08T04:56:38;9.50;;;7.20;;
5493;SDS011;2769;49.864;8.656;2023-07-08T04:59:07;11.13;;;7.60;;
5493;SDS011;2769;49.864;8.656;2023-07-08T05:01:36;9.50;;;7.60;;
5493;SDS011;2769;49.864;8.656;2023-07-08T05:04:06;9.53;;;7.67;;
5493;SDS011;2769;49.864;8.656;2023-07-08T05:06:34;11.47;;;8.07;;
5493;SDS011;2769;49.864;8.656;2023-07-08T05:09:03;12.13;;;7.90;;
5493;SDS011;2769;49.864;8.656;2023-07-08T05:11:31;12.53;;;6.97;;
5493;SDS011;2769;49.864;8.656;2023-07-08T05:13:59;15.70;;;7.87;;
5493;SDS011;2769;49.864;8.656;2023-07-08T05:16:28;9.37;;;7.23;;
5493;SDS011;2769;49.864;8.656;2023-07-08T05:18:56;8.07;;;7.00;;
5493;SDS011;2769;49.864;8.656;2023-07-08T05:21:25;11.00;;;7.60;;
5493;SDS011;2769;49.864;8.656;2023-07-08T05:23:55;10.50;;;7.20;;
5493;SDS011;2769;49.864;8.656;2023-07-08T05:26:23;11.10;;;7.40;;
5493;SDS011;2769;49.864;8.656;2023-07-08T05:28:51;8.53;;;6.80;;
5493;SDS011;2769;49.864;8.656;2023-07-08T05:31:19;13.97;;;8.10;;
5493;SDS011;2769;49.864;8.656;2023-07-08T05:33:52;9.27;;;7.10;;
5493;SDS011;2769;49.864;8.656;2023-07-08T05:36:20;9.73;;;6.83;;
5493;SDS011;2769;49.864;8.656;2023-07-08T05:38:49;9.73;;;7.60;;
5493;SDS011;2769;49.864;8.656;2023-07-08T05:41:17;12.33;;;8.23;;
5493;SDS011;2769;49.864;8.656;2023-07-08T05:43:45;9.10;;;7.13;;
5493;SDS011;2769;49.864;8.656;2023-07-08T05:46:13;14.13;;;7.00;;
5493;SDS011;2769;49.864;8.656;2023-07-08T05:48:42;12.10;;;7.53;;
5493;SDS011;2769;49.864;8.656;2023-07-08T05:51:09;8.50;;;7.20;;
5493;SDS011;2769;49.864;8.656;2023-07-08T05:53:37;15.00;;;7.50;;
5493;SDS011;2769;49.864;8.656;2023-07-08T05:56:07;10.20;;;7.00;;
5493;SDS011;2769;49.864;8.656;2023-07-08T05:58:35;8.87;;;7.33;;
5493;SDS011;2769;49.864;8.656;2023-07-08T06:01:03;7.40;;;6.60;;
5493;SDS011;2769;49.864;8.656;2023-07-08T06:03:31;11.67;;;7.03;;
5493;SDS011;2769;49.864;8.656;2023-07-08T06:05:59;14.47;;;7.53;;
5493;SDS011;2769;49.864;8.656;2023-07-08T06:08:28;11.43;;;6.70;;
5493;SDS011;2769;49.864;8.656;2023-07-08T06:10:56;13.23;;;6.83;;
5493;SDS011;2769;49.864;8.656;2023-07-08T06:13:26;11.43;;;6.57;;
5493;SDS011;2769;49.864;8.656;2023-07-08T06:15:54;11.60;;;7.77;;
5493;SDS011;2769;49.864;8.656;2023-07-08T06:18:23;8.83;;;7.10;;
5493;SDS011;2769;49.864;8.656;2023-07-08T06:20:51;9.07;;;6.67;;
5493;SDS011;2769;49.864;8.656;2023-07-08T06:23:20;10.50;;;7.10;;
5493;SDS011;2769;49.864;8.656;2023-07-08T06:25:47;9.07;;;7.27;;
5493;SDS011;2769;49.864;8.656;2023-07-08T06:28:15;7.33;;;6.63;;
5493;SDS011;2769;49.864;8.656;2023-07-08T06:30:45;8.40;;;7.30;;
5493;SDS011;2769;49.864;8.656;2023-07-08T06:33:13;9.70;;;6.70;;
5493;SDS011;2769;49.864;8.656;2023-07-08T06:35:41;11.60;;;6.10;;
5493;SDS011;2769;49.864;8.656;2023-07-08T06:38:10;11.60;;;7.23;;
5493;SDS011;2769;49.864;8.656;2023-07-08T06:40:38;8.73;;;6.20;;
5493;SDS011;2769;49.864;8.656;2023-07-08T06:43:06;10.30;;;6.43;;
5493;SDS011;2769;49.864;8.656;2023-07-08T06:45:50;8.83;;;6.33;;
5493;SDS011;2769;49.864;8.656;2023-07-08T06:48:18;9.97;;;6.50;;
5493;SDS011;2769;49.864;8.656;2023-07-08T06:50:47;9.83;;;6.13;;
5493;SDS011;2769;49.864;8.656;2023-07-08T06:53:15;7.60;;;6.10;;
5493;SDS011;2769;49.864;8.656;2023-07-08T06:55:43;12.43;;;6.53;;
5493;SDS011;2769;49.864;8.656;2023-07-08T06:58:12;9.20;;;5.70;;
5493;SDS011;2769;49.864;8.656;2023-07-08T07:00:41;8.37;;;6.67;;
5493;SDS011;2769;49.864;8.656;2023-07-08T07:03:11;9.63;;;6.40;;
5493;SDS011;2769;49.864;8.656;2023-07-08T07:05:39;12.33;;;6.27;;
5493;SDS011;2769;49.864;8.656;2023-07-08T07:08:07;7.20;;;6.43;;
5493;SDS011;2769;49.864;8.656;2023-07-08T07:10:35;11.77;;;6.97;;
5493;SDS011;2769;49.864;8.656;2023-07-08T07:13:04;8.47;;;6.73;;
5493;SDS011;2769;49.864;8.656;2023-07-08T07:15:32;10.20;;;6.90;;
5493;SDS011;2769;49.864;8.656;2023-07-08T07:18:00;8.43;;;6.47;;
5493;SDS011;2769;49.864;8.656;2023-07-08T07:20:30;12.33;;;6.60;;
5493;SDS011;2769;49.864;8.656;2023-07-08T07:22:58;9.10;;;6.97;;
5493;SDS011;2769;49.864;8.656;2023-07-08T07:25:26;8.33;;;7.03;;
5493;SDS011;2769;49.864;8.656;2023-07-08T07:27:54;12.87;;;7.47;;
5493;SDS011;2769;49.864;8.656;2023-07-08T07:30:22;13.40;;;6.50;;
5493;SDS011;2769;49.864;8.656;2023-07-08T07:32:50;9.63;;;6.47;;
5493;SDS011;2769;49.864;8.656;2023-07-08T07:35:18;11.80;;;7.20;;
5493;SDS011;2769;49.864;8.656;2023-07-08T07:37:48;12.67;;;6.83;;
5493;SDS011;2769;49.864;8.656;2023-07-08T07:40:16;8.80;;;6.67;;
5493;SDS011;2769;49.864;8.656;2023-07-08T07:42:45;7.50;;;6.20;;
5493;SDS011;2769;49.864;8.656;2023-07-08T07:45:13;10.10;;;7.00;;
5493;SDS011;2769;49.864;8.656;2023-07-08T07:47:41;10.80;;;6.83;;
5493;SDS011;2769;49.864;8.656;2023-07-08T07:50:10;12.17;;;7.60;;
5493;SDS011;2769;49.864;8.656;2023-07-08T07:52:38;9.20;;;6.20;;
5493;SDS011;2769;49.864;8.656;2023-07-08T07:55:07;10.50;;;7.37;;
5493;SDS011;2769;49.864;8.656;2023-07-08T07:57:36;10.77;;;6.50;;
5493;SDS011;2769;49.864;8.656;2023-07-08T08:00:05;12.53;;;7.20;;
5493;SDS011;2769;49.864;8.656;2023-07-08T08:02:38;10.13;;;6.70;;
5493;SDS011;2769;49.864;8.656;2023-07-08T08:05:06;7.07;;;6.30;;
5493;SDS011;2769;49.864;8.656;2023-07-08T08:07:35;8.30;;;6.07;;
5493;SDS011;2769;49.864;8.656;2023-07-08T08:10:03;10.10;;;6.60;;
5493;SDS011;2769;49.864;8.656;2023-07-08T08:12:33;7.77;;;6.83;;
5493;SDS011;2769;49.864;8.656;2023-07-08T08:15:19;10.53;;;6.20;;
5493;SDS011;2769;49.864;8.656;2023-07-08T08:17:47;8.57;;;6.87;;
5493;SDS011;2769;49.864;8.656;2023-07-08T08:20:22;8.60;;;6.33;;
5493;SDS011;2769;49.864;8.656;2023-07-08T08:22:51;7.43;;;6.63;;
5493;SDS011;2769;49.864;8.656;2023-07-08T08:25:20;11.67;;;6.80;;
5493;SDS011;2769;49.864;8.656;2023-07-08T08:27:50;7.87;;;6.33;;
5493;SDS011;2769;49.864;8.656;2023-07-08T08:30:19;7.40;;;6.60;;
5493;SDS011;2769;49.864;8.656;2023-07-08T08:32:47;8.87;;;5.83;;
5493;SDS011;2769;49.864;8.656;2023-07-08T08:35:15;11.80;;;6.47;;
5493;SDS011;2769;49.864;8.656;2023-07-08T08:37:43;7.87;;;6.27;;
5493;SDS011;2769;49.864;8.656;2023-07-08T08:40:12;6.83;;;5.90;;
5493;SDS011;2769;49.864;8.656;2023-07-08T08:42:46;8.93;;;6.30;;
5493;SDS011;2769;49.864;8.656;2023-07-08T08:45:21;7.50;;;6.07;;
5493;SDS011;2769;49.864;8.656;2023-07-08T08:47:53;10.33;;;6.90;;
5493;SDS011;2769;49.864;8.656;2023-07-08T08:50:26;7.47;;;6.60;;
5493;SDS011;2769;49.864;8.656;2023-07-08T08:52:58;9.03;;;6.90;;
5493;SDS011;2769;49.864;8.656;2023-07-08T08:55:27;13.43;;;7.13;;
5493;SDS011;2769;49.864;8.656;2023-07-08T08:57:59;8.17;;;6.40;;
5493;SDS011;2769;49.864;8.656;2023-07-08T09:00:49;11.53;;;6.63;;
5493;SDS011;2769;49.864;8.656;2023-07-08T09:03:30;7.13;;;6.43;;
5493;SDS011;2769;49.864;8.656;2023-07-08T09:06:04;6.30;;;5.70;;
5493;SDS011;2769;49.864;8.656;2023-07-08T09:08:40;11.67;;;6.87;;
5493;SDS011;2769;49.864;8.656;2023-07-08T09:14:13;10.47;;;5.90;;
5493;SDS011;2769;49.864;8.656;2023-07-08T09:16:44;5.90;;;5.30;;
5493;SDS011;2769;49.864;8.656;2023-07-08T09:19:15;5.73;;;5.20;;
5493;SDS011;2769;49.864;8.656;2023-07-08T09:21:49;7.00;;;6.00;;
5493;SDS011;2769;49.864;8.656;2023-07-08T09:27:08;9.23;;;6.10;;
5493;SDS011;2769;49.864;8.656;2023-07-08T09:29:40;8.90;;;6.27;;
5493;SDS011;2769;49.864;8.656;2023-07-08T09:32:13;7.50;;;6.70;;
5493;SDS011;2769;49.864;8.656;2023-07-08T09:34:44;9.30;;;6.10;;
5493;SDS011;2769;49.864;8.656;2023-07-08T09:37:24;7.63;;;6.07;;
5493;SDS011;2769;49.864;8.656;2023-07-08T09:39:53;6.67;;;5.30;;
5493;SDS011;2769;49.864;8.656;2023-07-08T09:42:23;5.93;;;5.43;;
5493;SDS011;2769;49.864;8.656;2023-07-08T09:44:57;5.63;;;5.23;;
5493;SDS011;2769;49.864;8.656;2023-07-08T09:47:27;6.30;;;5.80;;
5493;SDS011;2769;49.864;8.656;2023-07-08T09:49:59;5.35;;;4.95;;
5493;SDS011;2769;49.864;8.656;2023-07-08T09:52:29;5.82;;;5.28;;
5493;SDS011;2769;49.864;8.656;2023-07-08T09:54:57;9.18;;;5.10;;
5493;SDS011;2769;49.864;8.656;2023-07-08T09:57:27;5.28;;;4.80;;
5493;SDS011;2769;49.864;8.656;2023-07-08T09:59:58;5.10;;;4.70;;
5493;SDS011;2769;49.864;8.656;2023-07-08T10:02:31;7.50;;;4.40;;
5493;SDS011;2769;49.864;8.656;2023-07-08T10:05:00;6.70;;;4.43;;
5493;SDS011;2769;49.864;8.656;2023-07-08T10:07:31;4.10;;;3.80;;
5493;SDS011;2769;49.864;8.656;2023-07-08T10:10:01;6.97;;;4.18;;
5493;SDS011;2769;49.864;8.656;2023-07-08T10:12:31;3.95;;;3.65;;
5493;SDS011;2769;49.864;8.656;2023-07-08T10:15:03;5.30;;;4.20;;
5493;SDS011;2769;49.864;8.656;2023-07-08T10:17:35;4.45;;;4.07;;
5493;SDS011;2769;49.864;8.656;2023-07-08T10:20:08;4.28;;;3.97;;
5493;SDS011;2769;49.864;8.656;2023-07-08T10:22:41;3.78;;;3.40;;
5493;SDS011;2769;49.864;8.656;2023-07-08T10:25:15;4.95;;;3.90;;
5493;SDS011;2769;49.864;8.656;2023-07-08T10:27:56;4.63;;;3.58;;
5493;SDS011;2769;49.864;8.656;2023-07-08T10:30:29;6.53;;;4.20;;
5493;SDS011;2769;49.864;8.656;2023-07-08T10:33:11;4.13;;;3.72;;
5493;SDS011;2769;49.864;8.656;2023-07-08T10:35:46;5.15;;;4.18;;
5493;SDS011;2769;49.864;8.656;2023-07-08T10:38:36;7.20;;;4.00;;
5493;SDS011;2769;49.864;8.656;2023-07-08T10:41:11;3.72;;;3.35;;
5493;SDS011;2769;49.864;8.656;2023-07-08T10:43:45;4.10;;;3.80;;
5493;SDS011;2769;49.864;8.656;2023-07-08T10:46:22;4.72;;;3.28;;
5493;SDS011;2769;49.864;8.656;2023-07-08T10:48:57;7.03;;;4.10;;
5493;SDS011;2769;49.864;8.656;2023-07-08T10:51:34;8.27;;;4.03;;
5493;SDS011;2769;49.864;8.656;2023-07-08T10:54:16;4.28;;;3.35;;
5493;SDS011;2769;49.864;8.656;2023-07-08T10:56:53;3.65;;;3.45;;
5493;SDS011;2769;49.864;8.656;2023-07-08T10:59:25;3.63;;;3.33;;
5493;SDS011;2769;49.864;8.656;2023-07-08T11:04:55;4.60;;;3.60;;
5493;SDS011;2769;49.864;8.656;2023-07-08T11:07:29;4.38;;;3.67;;
5493;SDS011;2769;49.864;8.656;2023-07-08T11:10:00;4.40;;;4.00;;
5493;SDS011;2769;49.864;8.656;2023-07-08T11:12:33;4.60;;;4.18;;
5493;SDS011;2769;49.864;8.656;2023-07-08T11:15:05;4.70;;;4.40;;
5493;SDS011;2769;49.864;8.656;2023-07-08T11:17:42;7.30;;;3.90;;
5493;SDS011;2769;49.864;8.656;2023-07-08T11:20:13;6.20;;;4.53;;
5493;SDS011;2769;49.864;8.656;2023-07-08T11:22:46;6.70;;;4.72;;
5493;SDS011;2769;49.864;8.656;2023-07-08T11:25:17;5.00;;;3.90;;
5493;SDS011;2769;49.864;8.656;2023-07-08T11:27:46;4.70;;;3.88;;
5493;SDS011;2769;49.864;8.656;2023-07-08T11:30:17;4.00;;;3.70;;
5493;SDS011;2769;49.864;8.656;2023-07-08T11:32:57;4.03;;;3.70;;
5493;SDS011;2769;49.864;8.656;2023-07-08T11:35:32;4.53;;;4.05;;
5493;SDS011;2769;49.864;8.656;2023-07-08T11:38:02;4.15;;;3.75;;
5493;SDS011;2769;49.864;8.656;2023-07-08T11:40:31;4.07;;;3.70;;
5493;SDS011;2769;49.864;8.656;2023-07-08T11:43:00;7.93;;;3.72;;
5493;SDS011;2769;49.864;8.656;2023-07-08T11:45:30;3.50;;;3.30;;
5493;SDS011;2769;49.864;8.656;2023-07-08T11:48:05;3.95;;;3.63;;
5493;SDS011;2769;49.864;8.656;2023-07-08T11:50:38;6.65;;;4.30;;
5493;SDS011;2769;49.864;8.656;2023-07-08T11:53:09;6.93;;;3.38;;
5493;SDS011;2769;49.864;8.656;2023-07-08T11:55:42;3.67;;;3.47;;
5493;SDS011;2769;49.864;8.656;2023-07-08T11:58:19;3.97;;;3.47;;
5493;SDS011;2769;49.864;8.656;2023-07-08T12:00:54;3.50;;;3.28;;
5493;SDS011;2769;49.864;8.656;2023-07-08T12:03:31;4.22;;;3.88;;
5493;SDS011;2769;49.864;8.656;2023-07-08T12:06:02;3.88;;;3.65;;
5493;SDS011;2769;49.864;8.656;2023-07-08T12:08:33;4.03;;;3.53;;
5493;SDS011;2769;49.864;8.656;2023-07-08T12:11:04;4.18;;;3.65;;
5493;SDS011;2769;49.864;8.656;2023-07-08T12:13:38;3.50;;;3.22;;
5493;SDS011;2769;49.864;8.656;2023-07-08T12:16:08;3.85;;;3.55;;
5493;SDS011;2769;49.864;8.656;2023-07-08T12:18:39;3.60;;;3.40;;
5493;SDS011;2769;49.864;8.656;2023-07-08T12:21:12;3.95;;;3.63;;
5493;SDS011;2769;49.864;8.656;2023-07-08T12:23:43;3.92;;;3.63;;
5493;SDS011;2769;49.864;8.656;2023-07-08T12:26:12;3.78;;;3.22;;
5493;SDS011;2769;49.864;8.656;2023-07-08T12:28:41;3.50;;;3.20;;
5493;SDS011;2769;49.864;8.656;2023-07-08T12:31:10;5.97;;;3.60;;
5493;SDS011;2769;49.864;8.656;2023-07-08T12:33:43;3.13;;;2.92;;
5493;SDS011;2769;49.864;8.656;2023-07-08T12:36:18;2.90;;;2.70;;
5493;SDS011;2769;49.864;8.656;2023-07-08T12:38:47;3.25;;;2.90;;
5493;SDS011;2769;49.864;8.656;2023-07-08T12:41:18;3.42;;;3.20;;
5493;SDS011;2769;49.864;8.656;2023-07-08T12:43:48;3.22;;;2.97;;
5493;SDS011;2769;49.864;8.656;2023-07-08T12:46:18;4.00;;;3.30;;
5493;SDS011;2769;49.864;8.656;2023-07-08T12:48:48;3.47;;;3.17;;
5493;SDS011;2769;49.864;8.656;2023-07-08T12:51:17;3.50;;;2.83;;
5493;SDS011;2769;49.864;8.656;2023-07-08T12:53:47;3.17;;;3.03;;
5493;SDS011;2769;49.864;8.656;2023-07-08T12:56:19;2.78;;;2.58;;
5493;SDS011;2769;49.864;8.656;2023-07-08T12:58:50;2.50;;;2.40;;
5493;SDS011;2769;49.864;8.656;2023-07-08T13:01:22;5.28;;;2.78;;
5493;SDS011;2769;49.864;8.656;2023-07-08T13:03:53;3.22;;;3.03;;
5493;SDS011;2769;49.864;8.656;2023-07-08T13:06:25;2.75;;;2.55;;
5493;SDS011;2769;49.864;8.656;2023-07-08T13:08:56;4.85;;;3.13;;
5493;SDS011;2769;49.864;8.656;2023-07-08T13:11:28;3.70;;;2.75;;
5493;SDS011;2769;49.864;8.656;2023-07-08T13:13:58;3.22;;;2.90;;
5493;SDS011;2769;49.864;8.656;2023-07-08T13:16:29;3.08;;;2.88;;
5493;SDS011;2769;49.864;8.656;2023-07-08T13:19:00;2.72;;;2.47;;
5493;SDS011;2769;49.864;8.656;2023-07-08T13:21:28;2.90;;;2.75;;
5493;SDS011;2769;49.864;8.656;2023-07-08T13:23:57;5.32;;;3.03;;
5493;SDS011;2769;49.864;8.656;2023-07-08T13:26:26;2.95;;;2.75;;
5493;SDS011;2769;49.864;8.656;2023-07-08T13:28:59;4.45;;;3.20;;
5493;SDS011;2769;49.864;8.656;2023-07-08T13:31:31;4.95;;;3.08;;
5493;SDS011;2769;49.864;8.656;2023-07-08T13:34:07;3.25;;;2.85;;
5493;SDS011;2769;49.864;8.656;2023-07-08T13:36:36;4.00;;;3.60;;
5493;SDS011;2769;49.864;8.656;2023-07-08T13:39:05;3.25;;;3.05;;
5493;SDS011;2769;49.864;8.656;2023-07-08T13:41:35;3.30;;;3.00;;
5493;SDS011;2769;49.864;8.656;2023-07-08T13:44:04;4.63;;;3.83;;
5493;SDS011;2769;49.864;8.656;2023-07-08T13:46:34;5.25;;;3.20;;
5493;SDS011;2769;49.864;8.656;2023-07-08T13:49:09;4.22;;;3.63;;
5493;SDS011;2769;49.864;8.656;2023-07-08T13:51:40;3.63;;;3.03;;
5493;SDS011;2769;49.864;8.656;2023-07-08T13:54:13;4.13;;;3.80;;
5493;SDS011;2769;49.864;8.656;2023-07-08T13:56:43;3.47;;;3.17;;
5493;SDS011;2769;49.864;8.656;2023-07-08T13:59:15;3.33;;;3.03;;
5493;SDS011;2769;49.864;8.656;2023-07-08T14:01:45;4.78;;;3.70;;
5493;SDS011;2769;49.864;8.656;2023-07-08T14:04:16;5.18;;;3.40;;
5493;SDS011;2769;49.864;8.656;2023-07-08T14:06:46;3.65;;;3.35;;
5493;SDS011;2769;49.864;8.656;2023-07-08T14:09:14;6.50;;;4.00;;
5493;SDS011;2769;49.864;8.656;2023-07-08T14:11:44;7.35;;;4.18;;
5493;SDS011;2769;49.864;8.656;2023-07-08T14:14:12;7.50;;;3.58;;
5493;SDS011;2769;49.864;8.656;2023-07-08T14:16:41;4.85;;;3.97;;
5493;SDS011;2769;49.864;8.656;2023-07-08T14:19:12;4.30;;;3.22;;
5493;SDS011;2769;49.864;8.656;2023-07-08T14:21:43;12.45;;;3.85;;
5493;SDS011;2769;49.864;8.656;2023-07-08T14:24:12;4.67;;;3.60;;
5493;SDS011;2769;49.864;8.656;2023-07-08T14:26:41;5.70;;;4.17;;
5493;SDS011;2769;49.864;8.656;2023-07-08T14:29:10;6.87;;;3.80;;
5493;SDS011;2769;49.864;8.656;2023-07-08T14:31:38;7.10;;;3.87;;
5493;SDS011;2769;49.864;8.656;2023-07-08T14:34:11;5.80;;;3.50;;
5493;SDS011;2769;49.864;8.656;2023-07-08T14:36:40;7.90;;;3.90;;
5493;SDS011;2769;49.864;8.656;2023-07-08T14:39:11;7.17;;;3.50;;
5493;SDS011;2769;49.864;8.656;2023-07-08T14:41:40;3.67;;;3.37;;
5493;SDS011;2769;49.864;8.656;2023-07-08T14:44:10;6.43;;;3.70;;
5493;SDS011;2769;49.864;8.656;2023-07-08T14:46:47;4.20;;;3.67;;
5493;SDS011;2769;49.864;8.656;2023-07-08T14:49:17;5.10;;;3.97;;
5493;SDS011;2769;49.864;8.656;2023-07-08T14:51:45;6.40;;;3.57;;
5493;SDS011;2769;49.864;8.656;2023-07-08T14:54:15;4.23;;;3.77;;
5493;SDS011;2769;49.864;8.656;2023-07-08T14:56:43;7.93;;;3.50;;
5493;SDS011;2769;49.864;8.656;2023-07-08T14:59:12;6.10;;;3.73;;
5493;SDS011;2769;49.864;8.656;2023-07-08T15:01:42;5.57;;;3.73;;
5493;SDS011;2769;49.864;8.656;2023-07-08T15:04:11;3.93;;;3.43;;
5493;SDS011;2769;49.864;8.656;2023-07-08T15:06:43;7.33;;;4.47;;
5493;SDS011;2769;49.864;8.656;2023-07-08T15:09:12;10.60;;;4.07;;
5493;SDS011;2769;49.864;8.656;2023-07-08T15:11:41;9.07;;;3.83;;
5493;SDS011;2769;49.864;8.656;2023-07-08T15:14:14;6.30;;;3.53;;
5493;SDS011;2769;49.864;8.656;2023-07-08T15:16:45;4.30;;;3.50;;
5493;SDS011;2769;49.864;8.656;2023-07-08T15:19:13;7.80;;;3.87;;
5493;SDS011;2769;49.864;8.656;2023-07-08T15:21:41;6.13;;;3.87;;
5493;SDS011;2769;49.864;8.656;2023-07-08T15:24:10;3.57;;;3.23;;
5493;SDS011;2769;49.864;8.656;2023-07-08T15:26:39;4.70;;;3.30;;
5493;SDS011;2769;49.864;8.656;2023-07-08T15:29:12;7.20;;;3.87;;
5493;SDS011;2769;49.864;8.656;2023-07-08T15:31:41;5.73;;;3.73;;
5493;SDS011;2769;49.864;8.656;2023-07-08T15:34:11;4.40;;;3.20;;
5493;SDS011;2769;49.864;8.656;2023-07-08T15:36:41;4.27;;;3.70;;
5493;SDS011;2769;49.864;8.656;2023-07-08T15:39:08;5.67;;;3.27;;